createdAt,value
2019-01-23T00:03:01.364Z,80.69
2019-01-23T00:05:30.289Z,81.24
2019-01-23T00:07:59.355Z,81.44
2019-01-23T00:10:28.042Z,81.16
2019-01-23T00:12:56.700Z,80.54
2019-01-23T00:15:25.399Z,81.25
2019-01-23T00:17:54.205Z,81.44
2019-01-23T00:20:22.845Z,82.05
2019-01-23T00:22:51.545Z,81.99
2019-01-23T00:25:20.287Z,82.33
2019-01-23T00:27:48.921Z,81.92
2019-01-23T00:30:17.669Z,82.16
2019-01-23T00:32:46.295Z,81.08
2019-01-23T00:35:15.043Z,81.64
2019-01-23T00:37:43.765Z,81.85
2019-01-23T00:40:12.600Z,81.15
2019-01-23T00:42:41.293Z,81.19
2019-01-23T00:45:10.816Z,81.82
2019-01-23T00:47:39.475Z,81.35
2019-01-23T00:50:08.841Z,80.29
2019-01-23T00:52:37.551Z,80.65
2019-01-23T00:55:08.134Z,80.95
2019-01-23T00:57:36.839Z,80.73
2019-01-23T01:00:46.206Z,80.98
2019-01-23T01:03:14.926Z,80.82
2019-01-23T01:05:43.652Z,80.12
2019-01-23T01:08:31.499Z,80.63
2019-01-23T01:11:00.204Z,80.26
2019-01-23T01:13:28.937Z,80.60
2019-01-23T01:15:57.631Z,80.34
2019-01-23T01:18:26.344Z,80.35
2019-01-23T01:20:55.053Z,80.30
2019-01-23T01:23:23.745Z,80.66
2019-01-23T01:25:52.381Z,80.95
2019-01-23T01:28:21.065Z,80.96
2019-01-23T01:30:49.720Z,81.11
2019-01-23T01:33:18.362Z,80.65
2019-01-23T01:35:47.136Z,80.44
2019-01-23T01:38:15.780Z,80.78
2019-01-23T01:40:44.408Z,80.70
2019-01-23T01:43:13.154Z,80.65
2019-01-23T01:45:41.791Z,80.51
2019-01-23T01:48:10.458Z,80.65
2019-01-23T01:50:39.079Z,80.51
2019-01-23T01:53:07.855Z,80.02
2019-01-23T01:55:36.521Z,80.58
2019-01-23T01:58:25.967Z,80.88
2019-01-23T02:00:54.635Z,80.39
2019-01-23T02:03:23.395Z,80.53
2019-01-23T02:05:52.045Z,80.73
2019-01-23T02:08:20.743Z,80.67
2019-01-23T02:10:49.436Z,80.25
2019-01-23T02:13:18.141Z,80.20
2019-01-23T02:15:46.771Z,80.48
2019-01-23T02:18:15.423Z,80.57
2019-01-23T02:20:44.175Z,80.05
2019-01-23T02:23:12.802Z,79.96
2019-01-23T02:25:41.490Z,79.15
2019-01-23T02:28:10.137Z,79.44
2019-01-23T02:30:38.760Z,79.47
2019-01-23T02:33:07.436Z,79.38
2019-01-23T02:35:36.044Z,79.74
2019-01-23T02:38:04.742Z,79.98
2019-01-23T02:40:33.506Z,79.78
2019-01-23T02:43:02.170Z,79.32
2019-01-23T02:45:30.825Z,78.87
2019-01-23T02:47:59.611Z,78.35
2019-01-23T02:50:28.250Z,78.26
2019-01-23T02:52:56.955Z,78.81
2019-01-23T02:55:25.606Z,78.48
2019-01-23T02:57:54.229Z,78.72
2019-01-23T03:00:22.870Z,78.02
2019-01-23T03:02:51.641Z,78.23
2019-01-23T03:05:21.243Z,78.46
2019-01-23T03:07:49.891Z,77.85
2019-01-23T03:13:33.532Z,77.93
2019-01-23T03:16:02.236Z,77.71
2019-01-23T03:18:30.874Z,78.19
2019-01-23T03:20:59.502Z,77.79
2019-01-23T03:23:28.214Z,78.18
2019-01-23T03:25:56.832Z,77.44
2019-01-23T03:28:25.547Z,78.08
2019-01-23T03:30:54.136Z,78.26
2019-01-23T03:33:22.792Z,78.21
2019-01-23T03:35:51.416Z,78.25
2019-01-23T03:38:20.028Z,78.21
2019-01-23T03:40:48.671Z,77.94
2019-01-23T03:43:17.392Z,77.62
2019-01-23T03:45:46.016Z,77.96
2019-01-23T03:48:14.657Z,77.86
2019-01-23T03:50:43.294Z,77.14
2019-01-23T03:53:11.973Z,77.21
2019-01-23T03:55:40.672Z,77.13
2019-01-23T03:58:09.359Z,76.90
2019-01-23T04:00:38.046Z,77.31
2019-01-23T04:03:06.784Z,77.90
2019-01-23T04:05:35.385Z,77.81
2019-01-23T04:08:04.192Z,77.10
2019-01-23T04:13:46.757Z,77.04
2019-01-23T04:16:15.479Z,77.44
2019-01-23T04:18:44.138Z,78.37
2019-01-23T04:21:12.894Z,78.51
2019-01-23T04:23:41.571Z,77.91
2019-01-23T04:26:10.181Z,77.65
2019-01-23T04:28:38.880Z,77.94
2019-01-23T04:31:09.001Z,78.37
2019-01-23T04:33:37.916Z,78.41
2019-01-23T04:36:06.562Z,78.40
2019-01-23T04:38:35.169Z,78.56
2019-01-23T04:41:03.886Z,77.40
2019-01-23T04:43:32.535Z,77.30
2019-01-23T04:46:01.154Z,77.96
2019-01-23T04:51:03.832Z,77.79
2019-01-23T04:53:36.307Z,77.97
2019-01-23T04:56:44.722Z,77.40
2019-01-23T04:59:13.435Z,77.53
2019-01-23T05:01:42.067Z,76.99
2019-01-23T05:04:10.822Z,77.11
2019-01-23T05:06:39.461Z,76.04
2019-01-23T05:09:09.160Z,75.90
2019-01-23T05:11:37.804Z,76.25
2019-01-23T05:14:06.560Z,76.78
2019-01-23T05:16:35.324Z,76.91
2019-01-23T05:19:04.137Z,76.47
2019-01-23T05:21:32.784Z,75.52
2019-01-23T05:24:01.501Z,75.81
2019-01-23T05:26:30.147Z,75.84
2019-01-23T05:28:58.761Z,75.55
2019-01-23T05:31:27.488Z,75.25
2019-01-23T05:33:56.156Z,76.28
2019-01-23T05:36:24.791Z,76.31
2019-01-23T05:38:53.518Z,75.44
2019-01-23T05:41:22.240Z,75.25
2019-01-23T05:43:50.895Z,75.04
2019-01-23T05:46:19.627Z,75.06
2019-01-23T05:51:35.995Z,75.91
2019-01-23T05:54:23.842Z,75.10
2019-01-23T05:56:52.451Z,75.63
2019-01-23T05:59:21.140Z,76.26
2019-01-23T06:01:49.910Z,75.60
2019-01-23T06:04:18.476Z,75.29
2019-01-23T06:06:47.197Z,75.99
2019-01-23T06:09:15.816Z,76.54
2019-01-23T06:11:44.457Z,76.45
2019-01-23T06:14:13.095Z,76.51
2019-01-23T06:16:41.906Z,75.77
2019-01-23T06:19:10.598Z,75.71
2019-01-23T06:21:39.273Z,75.23
2019-01-23T06:24:07.888Z,76.61
2019-01-23T06:26:36.643Z,76.39
2019-01-23T06:29:05.486Z,76.33
2019-01-23T06:31:34.319Z,76.22
2019-01-23T06:34:02.956Z,76.31
2019-01-23T06:36:31.597Z,76.39
2019-01-23T06:39:00.303Z,76.25
2019-01-23T06:41:29.162Z,76.18
2019-01-23T06:43:57.774Z,76.45
2019-01-23T06:46:26.432Z,76.57
2019-01-23T06:48:55.211Z,76.59
2019-01-23T06:51:23.899Z,77.00
2019-01-23T06:53:52.595Z,77.00
2019-01-23T06:56:21.254Z,77.00
2019-01-23T06:58:49.905Z,76.85
2019-01-23T07:01:18.610Z,77.33
2019-01-23T07:03:47.314Z,77.30
2019-01-23T07:06:16.159Z,77.35
2019-01-23T07:08:44.951Z,77.64
2019-01-23T07:11:13.639Z,77.22
2019-01-23T07:13:42.382Z,77.15
2019-01-23T07:16:10.997Z,77.46
2019-01-23T07:18:39.630Z,77.06
2019-01-23T07:21:08.267Z,77.17
2019-01-23T07:23:36.938Z,76.88
2019-01-23T07:26:05.601Z,77.03
2019-01-23T07:28:34.269Z,76.69
2019-01-23T07:31:02.911Z,77.00
2019-01-23T07:33:31.575Z,76.86
2019-01-23T07:36:00.235Z,76.51
2019-01-23T07:38:28.870Z,75.97
2019-01-23T07:40:57.521Z,75.84
2019-01-23T07:43:26.299Z,75.35
2019-01-23T07:45:55.041Z,75.48
2019-01-23T07:48:23.677Z,75.39
2019-01-23T07:50:52.293Z,75.40
2019-01-23T07:53:21.005Z,75.60
2019-01-23T07:55:49.637Z,75.04
2019-01-23T07:58:18.316Z,75.20
2019-01-23T08:00:46.927Z,74.92
2019-01-23T08:03:15.571Z,74.93
2019-01-23T08:05:44.268Z,74.76
2019-01-23T08:11:07.865Z,74.52
2019-01-23T08:13:36.505Z,74.88
2019-01-23T08:16:05.291Z,74.88
2019-01-23T08:18:33.925Z,74.81
2019-01-23T08:21:02.591Z,75.61
2019-01-23T08:23:31.227Z,75.03
2019-01-23T08:25:59.863Z,74.36
2019-01-23T08:28:28.582Z,74.35
2019-01-23T08:30:57.263Z,74.22
2019-01-23T08:33:25.929Z,74.54
2019-01-23T08:35:54.627Z,74.96
2019-01-23T08:38:23.332Z,74.72
2019-01-23T08:40:51.967Z,74.42
2019-01-23T08:43:20.656Z,74.03
2019-01-23T08:45:49.292Z,73.94
2019-01-23T08:48:17.922Z,73.68
2019-01-23T08:50:46.691Z,74.30
2019-01-23T08:53:15.412Z,74.20
2019-01-23T08:55:44.050Z,73.62
2019-01-23T08:58:12.750Z,74.40
2019-01-23T09:00:45.770Z,74.35
2019-01-23T09:03:11.773Z,75.93
2019-01-23T09:05:40.503Z,74.94
2019-01-23T09:08:09.330Z,74.61
2019-01-23T09:10:38.002Z,73.61
2019-01-23T09:13:06.693Z,73.47
2019-01-23T09:15:35.351Z,73.93
2019-01-23T09:18:04.269Z,73.73
2019-01-23T09:20:32.908Z,72.98
2019-01-23T09:23:01.538Z,73.26
2019-01-23T09:25:30.357Z,73.45
2019-01-23T09:27:58.972Z,73.34
2019-01-23T09:30:52.566Z,74.07
2019-01-23T09:33:41.756Z,74.40
2019-01-23T09:36:32.017Z,74.60
2019-01-23T09:39:39.170Z,73.65
2019-01-23T09:42:46.269Z,72.80
2019-01-23T09:45:53.375Z,73.08
2019-01-23T09:48:48.419Z,73.79
2019-01-23T09:51:55.539Z,73.96
2019-01-23T09:54:24.300Z,73.75
2019-01-23T09:56:52.906Z,73.69
2019-01-23T09:59:21.603Z,73.59
2019-01-23T10:01:50.357Z,73.60
2019-01-23T10:04:18.940Z,73.33
2019-01-23T10:06:47.603Z,73.64
2019-01-23T10:09:16.214Z,74.40
2019-01-23T10:11:44.962Z,74.26
2019-01-23T10:14:13.581Z,73.61
2019-01-23T10:16:42.214Z,73.43
2019-01-23T10:19:10.858Z,72.91
2019-01-23T10:21:39.627Z,72.56
2019-01-23T10:24:08.288Z,71.48
2019-01-23T10:26:56.198Z,71.96
2019-01-23T10:29:24.903Z,72.07
2019-01-23T10:31:53.551Z,72.72
2019-01-23T10:34:22.157Z,72.92
2019-01-23T10:36:50.793Z,73.38
2019-01-23T10:39:19.429Z,73.05
2019-01-23T10:41:48.096Z,72.80
2019-01-23T10:44:16.709Z,72.94
2019-01-23T10:46:45.413Z,72.46
2019-01-23T10:49:14.030Z,71.97
2019-01-23T10:51:42.722Z,71.83
2019-01-23T10:54:11.413Z,72.36
2019-01-23T10:56:40.229Z,73.23
2019-01-23T10:59:08.930Z,73.39
2019-01-23T11:01:37.605Z,73.58
2019-01-23T11:04:06.362Z,74.53
2019-01-23T11:06:35.062Z,74.16
2019-01-23T11:09:24.931Z,74.73
2019-01-23T11:11:53.572Z,74.72
2019-01-23T11:14:22.222Z,74.49
2019-01-23T11:16:50.904Z,73.74
2019-01-23T11:19:19.570Z,73.26
2019-01-23T11:21:48.198Z,72.61
2019-01-23T11:24:16.850Z,72.44
2019-01-23T11:26:45.692Z,71.74
2019-01-23T11:29:14.303Z,72.02
2019-01-23T11:31:43.107Z,71.82
2019-01-23T11:34:11.831Z,71.33
2019-01-23T11:36:40.605Z,71.82
2019-01-23T11:39:10.227Z,73.41
2019-01-23T11:41:39.001Z,78.01
2019-01-23T11:44:07.683Z,77.94
2019-01-23T11:46:36.294Z,76.76
2019-01-23T11:49:04.996Z,75.65
2019-01-23T11:51:33.735Z,75.86
2019-01-23T11:54:02.431Z,75.53
2019-01-23T11:56:31.148Z,73.74
2019-01-23T11:58:59.773Z,74.50
2019-01-23T12:01:28.466Z,73.58
2019-01-23T12:03:57.121Z,73.78
2019-01-23T12:06:25.752Z,73.90
2019-01-23T12:08:54.491Z,74.07
2019-01-23T12:11:23.216Z,74.13
2019-01-23T12:13:51.983Z,73.64
2019-01-23T12:16:20.615Z,73.39
2019-01-23T12:19:10.061Z,72.97
2019-01-23T12:21:38.676Z,72.77
2019-01-23T12:24:07.319Z,73.71
2019-01-23T12:26:35.948Z,73.18
2019-01-23T12:29:44.390Z,73.50
2019-01-23T12:32:12.993Z,73.43
2019-01-23T12:34:41.721Z,73.27
2019-01-23T12:37:10.340Z,72.65
2019-01-23T12:39:39.116Z,72.88
2019-01-23T12:42:07.815Z,71.99
2019-01-23T12:44:36.556Z,72.92
2019-01-23T12:47:05.248Z,73.06
2019-01-23T12:49:33.913Z,73.12
2019-01-23T12:52:02.700Z,73.07
2019-01-23T12:54:31.474Z,73.43
2019-01-23T12:57:00.180Z,73.06
2019-01-23T12:59:28.798Z,72.78
2019-01-23T13:01:57.500Z,72.96
2019-01-23T13:04:26.199Z,73.36
2019-01-23T13:06:54.838Z,73.56
2019-01-23T13:09:23.476Z,73.87
2019-01-23T13:11:52.164Z,73.91
2019-01-23T13:14:20.789Z,73.25
2019-01-23T13:19:47.244Z,73.64
2019-01-23T13:22:15.846Z,73.59
2019-01-23T13:25:04.151Z,73.19
2019-01-23T13:27:32.774Z,72.85
2019-01-23T13:30:01.427Z,72.64
2019-01-23T13:32:30.028Z,73.12
2019-01-23T13:34:58.679Z,72.47
2019-01-23T13:37:27.296Z,73.06
2019-01-23T13:39:55.950Z,73.76
2019-01-23T13:42:24.595Z,73.21
2019-01-23T13:44:53.330Z,72.71
2019-01-23T13:47:22.084Z,72.50
2019-01-23T13:49:50.801Z,72.66
2019-01-23T13:52:19.619Z,72.44
2019-01-23T13:54:48.262Z,73.15
2019-01-23T13:57:16.936Z,75.20
2019-01-23T13:59:45.583Z,75.98
2019-01-23T14:02:14.201Z,75.86
2019-01-23T14:04:42.919Z,75.83
2019-01-23T14:07:11.571Z,75.37
2019-01-23T14:09:40.204Z,75.51
2019-01-23T14:12:09.002Z,75.29
2019-01-23T14:14:37.649Z,74.03
2019-01-23T14:17:06.384Z,73.32
2019-01-23T14:19:35.015Z,72.91
2019-01-23T14:22:03.693Z,72.97
2019-01-23T14:24:32.316Z,73.64
2019-01-23T14:27:01.304Z,73.35
2019-01-23T14:29:30.063Z,73.07
2019-01-23T14:32:03.236Z,73.61
2019-01-23T14:34:29.161Z,73.76
2019-01-23T14:36:57.866Z,73.66
2019-01-23T14:39:26.515Z,73.67
2019-01-23T14:41:55.172Z,73.12
2019-01-23T14:44:23.785Z,73.44
2019-01-23T14:46:54.525Z,73.86
2019-01-23T14:49:23.282Z,73.52
2019-01-23T14:51:54.811Z,73.57
2019-01-23T14:54:23.479Z,73.95
2019-01-23T14:56:52.126Z,74.09
2019-01-23T14:59:40.047Z,74.20
2019-01-23T15:02:10.363Z,74.38
2019-01-23T15:04:39.553Z,74.26
2019-01-23T15:07:08.201Z,74.32
2019-01-23T15:09:36.998Z,74.11
2019-01-23T15:12:05.910Z,74.40
2019-01-23T15:14:34.574Z,73.75
2019-01-23T15:17:03.265Z,74.53
2019-01-23T15:19:51.111Z,73.92
2019-01-23T15:22:19.758Z,74.55
2019-01-23T15:24:48.767Z,74.35
2019-01-23T15:27:17.474Z,74.01
2019-01-23T15:29:46.188Z,74.52
2019-01-23T15:32:17.343Z,74.85
2019-01-23T15:34:45.886Z,75.05
2019-01-23T15:37:14.638Z,74.90
2019-01-23T15:39:43.316Z,74.85
2019-01-23T15:42:11.975Z,75.04
2019-01-23T15:44:40.626Z,75.07
2019-01-23T15:47:09.362Z,75.25
2019-01-23T15:49:37.981Z,75.45
2019-01-23T15:52:06.605Z,75.57
2019-01-23T15:54:35.310Z,75.74
2019-01-23T15:57:03.955Z,75.98
2019-01-23T15:59:32.595Z,75.78
2019-01-23T16:02:01.304Z,75.69
2019-01-23T16:04:29.933Z,75.23
2019-01-23T16:06:58.661Z,75.19
2019-01-23T16:09:27.377Z,74.85
2019-01-23T16:11:55.996Z,75.45
2019-01-23T16:14:26.560Z,75.53
2019-01-23T16:16:55.168Z,75.51
2019-01-23T16:19:23.875Z,75.73
2019-01-23T16:21:52.484Z,75.62
2019-01-23T16:24:21.673Z,75.97
2019-01-23T16:27:10.110Z,75.63
2019-01-23T16:29:39.988Z,75.51
2019-01-23T16:32:09.754Z,75.55
2019-01-23T16:37:30.989Z,75.67
2019-01-23T16:40:00.211Z,75.76
2019-01-23T16:42:30.291Z,75.61
2019-01-23T16:50:51.825Z,76.01
2019-01-23T16:53:23.263Z,76.10
2019-01-23T16:55:53.159Z,75.63
2019-01-23T16:58:23.341Z,75.31
2019-01-23T17:04:21.820Z,75.45
2019-01-23T17:09:46.125Z,75.62
2019-01-23T17:12:14.785Z,75.60
2019-01-23T17:14:43.424Z,75.50
2019-01-23T17:17:12.109Z,75.37
2019-01-23T17:19:40.807Z,74.94
2019-01-23T17:22:11.308Z,74.68
2019-01-23T17:24:39.958Z,74.83
2019-01-23T17:27:08.842Z,75.08
2019-01-23T17:29:38.645Z,75.12
2019-01-23T17:32:07.822Z,75.05
2019-01-23T17:34:36.672Z,75.00
2019-01-23T17:45:58.098Z,75.00
2019-01-23T17:48:27.064Z,76.24
2019-01-23T17:50:56.247Z,77.29
2019-01-23T17:53:25.556Z,77.52
2019-01-23T17:55:54.461Z,77.23
2019-01-23T17:58:23.201Z,77.21
2019-01-23T18:01:11.973Z,76.42
2019-01-23T18:03:43.015Z,76.27
2019-01-23T18:06:11.834Z,75.66
2019-01-23T18:08:40.762Z,75.87
2019-01-23T18:11:09.711Z,75.47
2019-01-23T18:13:58.145Z,76.19
2019-01-23T18:16:26.907Z,76.01
2019-01-23T18:19:22.485Z,74.80
2019-01-23T18:21:54.882Z,74.22
2019-01-23T18:24:42.929Z,74.36
2019-01-23T18:29:57.522Z,74.17
2019-01-23T18:32:28.980Z,74.44
2019-01-23T18:35:20.419Z,74.38
2019-01-23T18:38:28.126Z,74.32
2019-01-23T18:41:35.291Z,74.62
2019-01-23T18:48:01.380Z,74.74
2019-01-23T18:51:08.600Z,74.60
2019-01-23T18:59:38.113Z,75.19
2019-01-23T19:05:44.805Z,75.35
2019-01-23T19:14:34.361Z,74.96
2019-01-23T19:17:03.707Z,75.43
2019-01-23T19:19:32.717Z,75.40
2019-01-23T19:22:01.700Z,75.05
2019-01-23T19:24:30.519Z,75.03
2019-01-23T19:26:59.525Z,75.02
2019-01-23T19:29:28.311Z,74.99
2019-01-23T19:32:16.337Z,75.19
2019-01-23T19:37:48.553Z,75.07
2019-01-23T19:40:57.248Z,75.43
2019-01-23T19:43:25.989Z,75.32
2019-01-23T19:45:55.658Z,75.49
2019-01-23T19:48:24.469Z,75.13
2019-01-23T19:51:10.577Z,75.10
2019-01-23T19:53:39.402Z,74.55
2019-01-23T19:56:08.785Z,74.50
2019-01-23T19:58:39.361Z,74.12
2019-01-23T20:01:27.419Z,74.76
2019-01-23T20:03:57.032Z,74.44
2019-01-23T20:06:26.003Z,74.47
2019-01-23T20:14:19.228Z,75.61
2019-01-23T20:16:50.053Z,76.69
2019-01-23T20:19:38.246Z,76.74
2019-01-23T20:22:07.369Z,76.18
2019-01-23T20:24:55.377Z,75.63
2019-01-23T20:27:24.395Z,75.47
2019-01-23T20:29:57.411Z,75.88
2019-01-23T20:32:46.899Z,75.34
2019-01-23T20:35:45.420Z,75.06
2019-01-23T20:38:14.284Z,74.85
2019-01-23T20:41:02.969Z,74.91
2019-01-23T20:43:31.951Z,73.79
2019-01-23T20:46:01.258Z,73.50
2019-01-23T20:48:49.146Z,74.10
2019-01-23T20:51:20.817Z,74.45
2019-01-23T20:59:44.951Z,74.86
2019-01-23T21:02:14.613Z,74.69
2019-01-23T21:05:04.145Z,74.21
2019-01-23T21:07:53.567Z,74.03
2019-01-23T21:12:50.267Z,74.17
2019-01-23T21:15:21.861Z,74.18
2019-01-23T21:17:51.584Z,74.34
2019-01-23T21:23:38.312Z,74.56
2019-01-23T21:26:07.330Z,74.31
2019-01-23T21:31:45.225Z,75.88
2019-01-23T21:37:25.458Z,75.23
2019-01-23T21:39:54.168Z,75.91
2019-01-23T21:42:25.424Z,75.22
2019-01-23T21:45:14.250Z,75.79
2019-01-23T21:47:44.739Z,75.96
2019-01-23T21:50:21.233Z,76.06
2019-01-23T21:52:50.765Z,75.83
2019-01-23T21:58:22.582Z,76.47
2019-01-23T22:01:12.038Z,76.04
2019-01-23T22:04:20.561Z,75.92
2019-01-23T22:06:49.402Z,75.58
2019-01-23T22:09:37.958Z,75.74
2019-01-23T22:15:12.208Z,75.80
2019-01-23T22:17:40.898Z,75.75
2019-01-23T22:20:13.063Z,75.64
2019-01-23T22:22:43.549Z,75.01
2019-01-23T22:27:53.237Z,74.91
2019-01-23T22:30:41.491Z,75.65
2019-01-23T22:36:02.816Z,73.82
2019-01-23T22:38:31.424Z,73.98
2019-01-23T22:41:00.148Z,72.94
2019-01-23T22:43:28.776Z,73.24
2019-01-23T22:45:57.420Z,72.63
2019-01-23T22:48:26.152Z,72.28
2019-01-23T22:50:54.801Z,71.65
2019-01-23T22:53:23.525Z,71.61
2019-01-23T22:55:52.154Z,72.17
2019-01-23T22:58:20.764Z,72.71
2019-01-23T23:01:27.875Z,72.24
2019-01-23T23:04:02.933Z,72.08
2019-01-23T23:06:27.413Z,72.29
2019-01-23T23:08:56.144Z,72.42
2019-01-23T23:11:24.850Z,72.70
2019-01-23T23:13:53.498Z,72.36
2019-01-23T23:16:22.248Z,72.66
2019-01-23T23:19:10.083Z,72.51
2019-01-23T23:21:38.734Z,72.53
2019-01-23T23:24:07.428Z,72.96
2019-01-23T23:26:36.142Z,72.53
2019-01-23T23:29:04.953Z,72.50
2019-01-23T23:31:33.695Z,72.80
2019-01-23T23:34:02.409Z,72.58
2019-01-23T23:36:31.039Z,72.09
2019-01-23T23:38:59.678Z,73.02
2019-01-23T23:41:28.334Z,73.58
2019-01-23T23:43:57.010Z,74.09
2019-01-23T23:46:25.712Z,74.57
2019-01-23T23:48:54.471Z,74.77
2019-01-23T23:51:23.097Z,75.04
2019-01-23T23:53:51.751Z,75.15
2019-01-23T23:56:20.465Z,75.62
2019-01-23T23:58:49.126Z,75.73
